METAR Data
IDs: Format: Raw Decoded Include TAF

Data at: 0856 UTC 13 Aug 2022

ESSL 130850Z AUTO 31004KT 260V010 9999 NCD 25/12 Q1021